sensor_id;sensor_type;location;lat;lon;timestamp;pressure;altitude;pressure_sealevel;temperature;humidity
66880;BME280;53789;51.392;10.234;2023-02-21T00:00:13;98392.91;;;7.04;83.22
66880;BME280;53789;51.392;10.234;2023-02-21T00:00:33;98381.41;;;7.02;83.07
66880;BME280;53789;51.392;10.234;2023-02-21T00:00:54;98386.59;;;7.03;83.13
66880;BME280;53789;51.392;10.234;2023-02-21T00:01:14;98388.53;;;7.03;83.41
66880;BME280;53789;51.392;10.234;2023-02-21T00:01:34;98387.97;;;7.01;83.16
66880;BME280;53789;51.392;10.234;2023-02-21T00:01:55;98381.13;;;7.03;83.74
66880;BME280;53789;51.392;10.234;2023-02-21T00:02:16;98383.06;;;7.03;82.91
66880;BME280;53789;51.392;10.234;2023-02-21T00:02:36;98379.50;;;7.02;83.51
66880;BME280;53789;51.392;10.234;2023-02-21T00:02:57;98384.97;;;7.02;83.92
66880;BME280;53789;51.392;10.234;2023-02-21T00:03:17;98386.59;;;7.03;82.97
66880;BME280;53789;51.392;10.234;2023-02-21T00:03:37;98382.22;;;7.02;83.71
66880;BME280;53789;51.392;10.234;2023-02-21T00:03:58;98389.34;;;7.03;82.99
66880;BME280;53789;51.392;10.234;2023-02-21T00:04:18;98391.56;;;7.01;82.93
66880;BME280;53789;51.392;10.234;2023-02-21T00:04:38;98385.00;;;6.97;83.32
66880;BME280;53789;51.392;10.234;2023-02-21T00:04:59;98380.06;;;6.99;84.28
66880;BME280;53789;51.392;10.234;2023-02-21T00:05:19;98381.97;;;6.99;83.95
66880;BME280;53789;51.392;10.234;2023-02-21T00:05:39;98381.97;;;6.99;84.32
66880;BME280;53789;51.392;10.234;2023-02-21T00:05:59;98373.78;;;6.99;83.68
66880;BME280;53789;51.392;10.234;2023-02-21T00:06:20;98379.78;;;7.01;83.99
66880;BME280;53789;51.392;10.234;2023-02-21T00:06:43;98369.94;;;7.00;83.32
66880;BME280;53789;51.392;10.234;2023-02-21T00:07:04;98385.53;;;6.99;84.17
66880;BME280;53789;51.392;10.234;2023-02-21T00:07:24;98378.44;;;6.98;83.83
66880;BME280;53789;51.392;10.234;2023-02-21T00:07:45;98376.78;;;6.97;84.06
66880;BME280;53789;51.392;10.234;2023-02-21T00:08:05;98385.81;;;6.98;83.80
66880;BME280;53789;51.392;10.234;2023-02-21T00:08:25;98381.16;;;6.98;84.53
66880;BME280;53789;51.392;10.234;2023-02-21T00:08:46;98383.06;;;6.98;83.83
66880;BME280;53789;51.392;10.234;2023-02-21T00:09:06;98377.59;;;6.98;83.87
66880;BME280;53789;51.392;10.234;2023-02-21T00:09:26;98385.81;;;6.98;84.37
66880;BME280;53789;51.392;10.234;2023-02-21T00:09:46;98386.94;;;6.97;84.45
66880;BME280;53789;51.392;10.234;2023-02-21T00:10:10;98383.63;;;6.95;84.25
66880;BME280;53789;51.392;10.234;2023-02-21T00:10:30;98379.00;;;6.95;84.61
66880;BME280;53789;51.392;10.234;2023-02-21T00:10:51;98381.72;;;6.95;85.27
66880;BME280;53789;51.392;10.234;2023-02-21T00:11:11;98375.44;;;6.95;85.10
66880;BME280;53789;51.392;10.234;2023-02-21T00:11:31;98374.09;;;6.92;84.99
66880;BME280;53789;51.392;10.234;2023-02-21T00:11:52;98381.19;;;6.93;84.36
66880;BME280;53789;51.392;10.234;2023-02-21T00:12:12;98382.28;;;6.92;84.61
66880;BME280;53789;51.392;10.234;2023-02-21T00:12:32;98376.00;;;6.91;85.39
66880;BME280;53789;51.392;10.234;2023-02-21T00:12:53;98377.09;;;6.90;84.56
66880;BME280;53789;51.392;10.234;2023-02-21T00:13:13;98376.00;;;6.91;85.39
66880;BME280;53789;51.392;10.234;2023-02-21T00:13:38;98383.09;;;6.93;85.57
66880;BME280;53789;51.392;10.234;2023-02-21T00:13:58;98385.84;;;6.93;84.64
66880;BME280;53789;51.392;10.234;2023-02-21T00:14:18;98380.38;;;6.93;85.21
66880;BME280;53789;51.392;10.234;2023-02-21T00:14:39;98388.56;;;6.93;85.67
66880;BME280;53789;51.392;10.234;2023-02-21T00:14:59;98377.91;;;6.91;85.30
66880;BME280;53789;51.392;10.234;2023-02-21T00:15:19;98388.56;;;6.93;85.39
66880;BME280;53789;51.392;10.234;2023-02-21T00:15:40;98392.41;;;6.91;85.70
66880;BME280;53789;51.392;10.234;2023-02-21T00:16:00;98380.38;;;6.93;85.42
66880;BME280;53789;51.392;10.234;2023-02-21T00:16:20;98383.09;;;6.93;85.67
66880;BME280;53789;51.392;10.234;2023-02-21T00:16:41;98385.56;;;6.94;85.01
66880;BME280;53789;51.392;10.234;2023-02-21T00:17:01;98384.75;;;6.94;85.12
66880;BME280;53789;51.392;10.234;2023-02-21T00:17:21;98383.09;;;6.93;85.09
66880;BME280;53789;51.392;10.234;2023-02-21T00:17:42;98377.09;;;6.90;85.18
66880;BME280;53789;51.392;10.234;2023-02-21T00:18:02;98374.38;;;6.90;86.24
66880;BME280;53789;51.392;10.234;2023-02-21T00:18:22;98376.28;;;6.90;85.98
66880;BME280;53789;51.392;10.234;2023-02-21T00:18:43;98381.72;;;6.90;86.01
66880;BME280;53789;51.392;10.234;2023-02-21T00:19:04;98378.47;;;6.88;85.50
66880;BME280;53789;51.392;10.234;2023-02-21T00:19:24;98375.75;;;6.88;86.12
66880;BME280;53789;51.392;10.234;2023-02-21T00:19:44;98377.34;;;6.89;86.57
66880;BME280;53789;51.392;10.234;2023-02-21T00:20:05;98374.91;;;6.87;85.90
66880;BME280;53789;51.392;10.234;2023-02-21T00:20:25;98374.91;;;6.87;86.50
66880;BME280;53789;51.392;10.234;2023-02-21T00:20:45;98373.00;;;6.88;86.01
66880;BME280;53789;51.392;10.234;2023-02-21T00:21:06;98371.09;;;6.88;86.35
66880;BME280;53789;51.392;10.234;2023-02-21T00:21:28;98385.84;;;6.87;86.31
66880;BME280;53789;51.392;10.234;2023-02-21T00:21:48;98380.66;;;6.86;86.30
66880;BME280;53789;51.392;10.234;2023-02-21T00:22:09;98386.97;;;6.86;86.06
66880;BME280;53789;51.392;10.234;2023-02-21T00:22:29;98374.91;;;6.87;86.14
66880;BME280;53789;51.392;10.234;2023-02-21T00:22:49;98378.75;;;6.86;86.49
66880;BME280;53789;51.392;10.234;2023-02-21T00:23:09;98383.13;;;6.82;86.34
66880;BME280;53789;51.392;10.234;2023-02-21T00:23:34;98384.78;;;6.83;86.27
66880;BME280;53789;51.392;10.234;2023-02-21T00:23:54;98382.06;;;6.83;86.48
66880;BME280;53789;51.392;10.234;2023-02-21T00:24:17;98380.13;;;6.84;86.66
66880;BME280;53789;51.392;10.234;2023-02-21T00:24:38;98379.31;;;6.83;86.58
66880;BME280;53789;51.392;10.234;2023-02-21T00:24:58;98384.78;;;6.83;86.25
66880;BME280;53789;51.392;10.234;2023-02-21T00:25:18;98385.59;;;6.84;86.91
66880;BME280;53789;51.392;10.234;2023-02-21T00:25:38;98383.94;;;6.83;86.60
66880;BME280;53789;51.392;10.234;2023-02-21T00:25:59;98385.59;;;6.84;87.26
66880;BME280;53789;51.392;10.234;2023-02-21T00:26:20;98380.94;;;6.84;86.31
66880;BME280;53789;51.392;10.234;2023-02-21T00:26:41;98386.41;;;6.84;86.81
66880;BME280;53789;51.392;10.234;2023-02-21T00:27:02;98388.59;;;6.82;86.71
66880;BME280;53789;51.392;10.234;2023-02-21T00:27:24;98383.94;;;6.83;86.47
66880;BME280;53789;51.392;10.234;2023-02-21T00:27:45;98385.06;;;6.82;86.98
66880;BME280;53789;51.392;10.234;2023-02-21T00:28:05;98379.59;;;6.82;86.14
66880;BME280;53789;51.392;10.234;2023-02-21T00:28:25;98392.16;;;6.83;86.97
66880;BME280;53789;51.392;10.234;2023-02-21T00:28:45;98397.63;;;6.83;87.07
66880;BME280;53789;51.392;10.234;2023-02-21T00:29:06;98393.25;;;6.82;87.05
66880;BME280;53789;51.392;10.234;2023-02-21T00:29:27;98384.22;;;6.81;86.67
66880;BME280;53789;51.392;10.234;2023-02-21T00:29:49;98384.50;;;6.80;86.55
66880;BME280;53789;51.392;10.234;2023-02-21T00:30:10;98378.22;;;6.79;87.21
66880;BME280;53789;51.392;10.234;2023-02-21T00:30:31;98388.06;;;6.80;87.14
66880;BME280;53789;51.392;10.234;2023-02-21T00:30:51;98385.63;;;6.79;86.81
66880;BME280;53789;51.392;10.234;2023-02-21T00:31:11;98382.03;;;6.78;86.64
66880;BME280;53789;51.392;10.234;2023-02-21T00:31:31;98383.97;;;6.78;87.28
66880;BME280;53789;51.392;10.234;2023-02-21T00:31:52;98389.44;;;6.78;86.75
66880;BME280;53789;51.392;10.234;2023-02-21T00:32:13;98382.88;;;6.79;86.73
66880;BME280;53789;51.392;10.234;2023-02-21T00:32:33;98382.88;;;6.79;86.76
66880;BME280;53789;51.392;10.234;2023-02-21T00:32:54;98384.78;;;6.78;86.88
66880;BME280;53789;51.392;10.234;2023-02-21T00:33:14;98386.44;;;6.79;87.84
66880;BME280;53789;51.392;10.234;2023-02-21T00:33:35;98382.03;;;6.78;87.77
66880;BME280;53789;51.392;10.234;2023-02-21T00:33:56;98392.41;;;6.81;87.41
66880;BME280;53789;51.392;10.234;2023-02-21T00:34:16;98388.06;;;6.80;86.85
66880;BME280;53789;51.392;10.234;2023-02-21T00:34:36;98382.31;;;6.82;87.77
66880;BME280;53789;51.392;10.234;2023-02-21T00:34:57;98376.03;;;6.81;87.17
66880;BME280;53789;51.392;10.234;2023-02-21T00:35:17;98386.69;;;6.83;86.91
66880;BME280;53789;51.392;10.234;2023-02-21T00:35:37;98380.41;;;6.82;87.61
66880;BME280;53789;51.392;10.234;2023-02-21T00:35:57;98381.50;;;6.81;86.91
66880;BME280;53789;51.392;10.234;2023-02-21T00:36:18;98382.03;;;6.78;88.03
66880;BME280;53789;51.392;10.234;2023-02-21T00:36:38;98383.69;;;6.79;87.91
66880;BME280;53789;51.392;10.234;2023-02-21T00:36:58;98382.03;;;6.78;87.53
66880;BME280;53789;51.392;10.234;2023-02-21T00:37:19;98384.78;;;6.78;87.02
66880;BME280;53789;51.392;10.234;2023-02-21T00:37:39;98383.69;;;6.79;87.19
66880;BME280;53789;51.392;10.234;2023-02-21T00:37:59;98386.44;;;6.79;87.33
66880;BME280;53789;51.392;10.234;2023-02-21T00:38:19;98373.84;;;6.78;88.07
66880;BME280;53789;51.392;10.234;2023-02-21T00:38:40;98382.03;;;6.78;87.43
66880;BME280;53789;51.392;10.234;2023-02-21T00:39:00;98379.59;;;6.77;87.79
66880;BME280;53789;51.392;10.234;2023-02-21T00:39:20;98385.88;;;6.77;88.16
66880;BME280;53789;51.392;10.234;2023-02-21T00:39:41;98374.13;;;6.77;87.84
66880;BME280;53789;51.392;10.234;2023-02-21T00:40:01;98376.88;;;6.77;87.74
66880;BME280;53789;51.392;10.234;2023-02-21T00:40:21;98379.31;;;6.78;87.31
66880;BME280;53789;51.392;10.234;2023-02-21T00:40:42;98372.19;;;6.77;87.33
66880;BME280;53789;51.392;10.234;2023-02-21T00:41:02;98372.19;;;6.77;87.92
66880;BME280;53789;51.392;10.234;2023-02-21T00:41:22;98374.41;;;6.75;88.31
66880;BME280;53789;51.392;10.234;2023-02-21T00:41:42;98371.66;;;6.75;88.08
66880;BME280;53789;51.392;10.234;2023-02-21T00:42:03;98372.75;;;6.74;87.30
66880;BME280;53789;51.392;10.234;2023-02-21T00:42:23;98378.22;;;6.74;88.15
66880;BME280;53789;51.392;10.234;2023-02-21T00:42:43;98378.22;;;6.74;88.06
66880;BME280;53789;51.392;10.234;2023-02-21T00:43:04;98380.16;;;6.73;88.09
66880;BME280;53789;51.392;10.234;2023-02-21T00:43:31;98383.16;;;6.72;87.58
66880;BME280;53789;51.392;10.234;2023-02-21T00:43:52;98382.63;;;6.70;87.52
66880;BME280;53789;51.392;10.234;2023-02-21T00:44:12;98373.88;;;6.68;87.95
66880;BME280;53789;51.392;10.234;2023-02-21T00:44:33;98378.25;;;6.69;87.53
66880;BME280;53789;51.392;10.234;2023-02-21T00:44:53;98382.91;;;6.68;88.19
66880;BME280;53789;51.392;10.234;2023-02-21T00:45:13;98383.72;;;6.69;88.57
66880;BME280;53789;51.392;10.234;2023-02-21T00:45:34;98381.00;;;6.69;87.53
66880;BME280;53789;51.392;10.234;2023-02-21T00:45:55;98374.72;;;6.68;87.73
66880;BME280;53789;51.392;10.234;2023-02-21T00:46:15;98385.09;;;6.71;88.39
66880;BME280;53789;51.392;10.234;2023-02-21T00:46:36;98378.78;;;6.71;88.43
66880;BME280;53789;51.392;10.234;2023-02-21T00:46:56;98383.16;;;6.72;87.89
66880;BME280;53789;51.392;10.234;2023-02-21T00:47:16;98377.16;;;6.70;88.61
66880;BME280;53789;51.392;10.234;2023-02-21T00:47:37;98377.44;;;6.68;87.93
66880;BME280;53789;51.392;10.234;2023-02-21T00:47:57;98383.72;;;6.69;87.75
66880;BME280;53789;51.392;10.234;2023-02-21T00:48:22;98364.06;;;6.67;87.59
66880;BME280;53789;51.392;10.234;2023-02-21T00:48:42;98363.22;;;6.66;88.47
66880;BME280;53789;51.392;10.234;2023-02-21T00:49:04;98366.78;;;6.67;87.85
66880;BME280;53789;51.392;10.234;2023-02-21T00:49:24;98368.41;;;6.68;88.64
66880;BME280;53789;51.392;10.234;2023-02-21T00:49:45;98362.41;;;6.66;87.80
66880;BME280;53789;51.392;10.234;2023-02-21T00:50:05;98369.78;;;6.65;88.74
66880;BME280;53789;51.392;10.234;2023-02-21T00:50:25;98365.97;;;6.66;88.30
66880;BME280;53789;51.392;10.234;2023-02-21T00:50:46;98365.16;;;6.66;88.38
66880;BME280;53789;51.392;10.234;2023-02-21T00:51:06;98361.31;;;6.67;88.76
66880;BME280;53789;51.392;10.234;2023-02-21T00:51:27;98364.06;;;6.67;87.68
66880;BME280;53789;51.392;10.234;2023-02-21T00:51:47;98363.22;;;6.66;87.78
66880;BME280;53789;51.392;10.234;2023-02-21T00:52:08;98363.50;;;6.65;87.88
66880;BME280;53789;51.392;10.234;2023-02-21T00:52:28;98365.97;;;6.66;88.15
66880;BME280;53789;51.392;10.234;2023-02-21T00:52:48;98358.59;;;6.67;88.71
66880;BME280;53789;51.392;10.234;2023-02-21T00:53:09;98358.03;;;6.65;87.95
66880;BME280;53789;51.392;10.234;2023-02-21T00:53:29;98356.94;;;6.66;88.39
66880;BME280;53789;51.392;10.234;2023-02-21T00:53:49;98367.88;;;6.66;88.04
66880;BME280;53789;51.392;10.234;2023-02-21T00:54:09;98361.56;;;6.65;87.63
66880;BME280;53789;51.392;10.234;2023-02-21T00:54:30;98367.88;;;6.66;88.65
66880;BME280;53789;51.392;10.234;2023-02-21T00:54:50;98358.03;;;6.65;87.95
66880;BME280;53789;51.392;10.234;2023-02-21T00:55:10;98358.59;;;6.67;88.45
66880;BME280;53789;51.392;10.234;2023-02-21T00:55:31;98351.47;;;6.66;87.65
66880;BME280;53789;51.392;10.234;2023-02-21T00:55:51;98355.03;;;6.66;87.82
66880;BME280;53789;51.392;10.234;2023-02-21T00:56:12;98361.56;;;6.65;88.46
66880;BME280;53789;51.392;10.234;2023-02-21T00:56:32;98360.75;;;6.65;87.95
66880;BME280;53789;51.392;10.234;2023-02-21T00:56:52;98363.50;;;6.65;87.36
66880;BME280;53789;51.392;10.234;2023-02-21T00:57:13;98353.38;;;6.65;87.98
66880;BME280;53789;51.392;10.234;2023-02-21T00:57:33;98358.84;;;6.65;87.95
66880;BME280;53789;51.392;10.234;2023-02-21T00:57:53;98351.19;;;6.67;88.05
66880;BME280;53789;51.392;10.234;2023-02-21T00:58:13;98357.47;;;6.68;87.44
66880;BME280;53789;51.392;10.234;2023-02-21T00:58:34;98354.75;;;6.68;87.08
66880;BME280;53789;51.392;10.234;2023-02-21T00:58:54;98354.75;;;6.68;88.25
66880;BME280;53789;51.392;10.234;2023-02-21T00:59:14;98361.06;;;6.68;87.72
66880;BME280;53789;51.392;10.234;2023-02-21T00:59:35;98358.31;;;6.68;87.87
66880;BME280;53789;51.392;10.234;2023-02-21T00:59:55;98355.59;;;6.68;87.45
66880;BME280;53789;51.392;10.234;2023-02-21T01:00:18;98354.47;;;6.69;87.56
66880;BME280;53789;51.392;10.234;2023-02-21T01:00:40;98360.75;;;6.70;87.74
66880;BME280;53789;51.392;10.234;2023-02-21T01:01:00;98362.94;;;6.73;87.56
66880;BME280;53789;51.392;10.234;2023-02-21T01:01:20;98354.75;;;6.73;87.32
66880;BME280;53789;51.392;10.234;2023-02-21T01:01:41;98356.09;;;6.70;87.17
66880;BME280;53789;51.392;10.234;2023-02-21T01:02:01;98361.28;;;6.72;87.76
66880;BME280;53789;51.392;10.234;2023-02-21T01:02:22;98359.38;;;6.72;87.61
66880;BME280;53789;51.392;10.234;2023-02-21T01:02:42;98363.75;;;6.73;86.74
66880;BME280;53789;51.392;10.234;2023-02-21T01:03:03;98362.66;;;6.74;86.91
66880;BME280;53789;51.392;10.234;2023-02-21T01:03:23;98363.47;;;6.75;86.66
66880;BME280;53789;51.392;10.234;2023-02-21T01:03:43;98363.47;;;6.75;87.39
66880;BME280;53789;51.392;10.234;2023-02-21T01:04:04;98361.53;;;6.76;86.46
66880;BME280;53789;51.392;10.234;2023-02-21T01:04:24;98367.28;;;6.74;86.42
66880;BME280;53789;51.392;10.234;2023-02-21T01:04:44;98364.28;;;6.76;87.14
66880;BME280;53789;51.392;10.234;2023-02-21T01:05:05;98361.53;;;6.76;86.95
66880;BME280;53789;51.392;10.234;2023-02-21T01:05:25;98357.19;;;6.74;86.97
66880;BME280;53789;51.392;10.234;2023-02-21T01:05:46;98362.38;;;6.76;87.18
66880;BME280;53789;51.392;10.234;2023-02-21T01:06:10;98361.25;;;6.77;86.98
66880;BME280;53789;51.392;10.234;2023-02-21T01:06:31;98364.00;;;6.77;86.77
66880;BME280;53789;51.392;10.234;2023-02-21T01:06:51;98365.66;;;6.78;87.33
66880;BME280;53789;51.392;10.234;2023-02-21T01:07:12;98361.25;;;6.77;86.30
66880;BME280;53789;51.392;10.234;2023-02-21T01:07:32;98353.06;;;6.77;86.29
66880;BME280;53789;51.392;10.234;2023-02-21T01:07:52;98361.25;;;6.77;86.24
66880;BME280;53789;51.392;10.234;2023-02-21T01:08:13;98365.94;;;6.77;86.52
66880;BME280;53789;51.392;10.234;2023-02-21T01:08:34;98362.09;;;6.78;86.96
66880;BME280;53789;51.392;10.234;2023-02-21T01:08:54;98366.47;;;6.79;86.46
66880;BME280;53789;51.392;10.234;2023-02-21T01:09:14;98360.72;;;6.80;87.01
66880;BME280;53789;51.392;10.234;2023-02-21T01:09:35;98365.94;;;6.82;86.47
66880;BME280;53789;51.392;10.234;2023-02-21T01:09:56;98355.28;;;6.80;86.33
66880;BME280;53789;51.392;10.234;2023-02-21T01:10:16;98366.72;;;6.82;87.37
66880;BME280;53789;51.392;10.234;2023-02-21T01:10:37;98359.34;;;6.83;86.59
66880;BME280;53789;51.392;10.234;2023-02-21T01:10:57;98361.25;;;6.82;86.90
66880;BME280;53789;51.392;10.234;2023-02-21T01:11:20;98359.34;;;6.83;86.44
66880;BME280;53789;51.392;10.234;2023-02-21T01:11:40;98351.97;;;6.83;86.94
66880;BME280;53789;51.392;10.234;2023-02-21T01:12:00;98361.78;;;6.84;86.73
66880;BME280;53789;51.392;10.234;2023-02-21T01:12:21;98364.00;;;6.82;86.63
66880;BME280;53789;51.392;10.234;2023-02-21T01:12:41;98357.72;;;6.82;86.15
66880;BME280;53789;51.392;10.234;2023-02-21T01:13:03;98363.72;;;6.84;86.13
66880;BME280;53789;51.392;10.234;2023-02-21T01:13:23;98357.44;;;6.83;86.83
66880;BME280;53789;51.392;10.234;2023-02-21T01:13:43;98360.97;;;6.84;86.90
66880;BME280;53789;51.392;10.234;2023-02-21T01:14:05;98347.31;;;6.84;86.98
66880;BME280;53789;51.392;10.234;2023-02-21T01:14:25;98350.84;;;6.84;86.22
66880;BME280;53789;51.392;10.234;2023-02-21T01:14:46;98358.78;;;6.86;86.19
66880;BME280;53789;51.392;10.234;2023-02-21T01:15:06;98350.84;;;6.84;86.24
66880;BME280;53789;51.392;10.234;2023-02-21T01:15:27;98351.69;;;6.85;86.66
66880;BME280;53789;51.392;10.234;2023-02-21T01:15:47;98360.97;;;6.84;86.76
66880;BME280;53789;51.392;10.234;2023-02-21T01:16:07;98358.53;;;6.82;86.03
66880;BME280;53789;51.392;10.234;2023-02-21T01:16:29;98349.25;;;6.83;86.38
66880;BME280;53789;51.392;10.234;2023-02-21T01:16:51;98348.41;;;6.83;86.29
66880;BME280;53789;51.392;10.234;2023-02-21T01:17:11;98352.78;;;6.84;86.69
66880;BME280;53789;51.392;10.234;2023-02-21T01:17:31;98347.84;;;6.86;86.40
66880;BME280;53789;51.392;10.234;2023-02-21T01:17:51;98347.84;;;6.86;86.37
66880;BME280;53789;51.392;10.234;2023-02-21T01:18:12;98357.97;;;6.85;86.00
66880;BME280;53789;51.392;10.234;2023-02-21T01:18:32;98347.03;;;6.85;86.10
66880;BME280;53789;51.392;10.234;2023-02-21T01:18:53;98346.75;;;6.87;86.07
66880;BME280;53789;51.392;10.234;2023-02-21T01:19:13;98352.22;;;6.87;86.54
66880;BME280;53789;51.392;10.234;2023-02-21T01:19:34;98356.59;;;6.88;86.77
66880;BME280;53789;51.392;10.234;2023-02-21T01:19:54;98358.22;;;6.89;85.98
66880;BME280;53789;51.392;10.234;2023-02-21T01:20:15;98354.41;;;6.90;86.67
66880;BME280;53789;51.392;10.234;2023-02-21T01:20:35;98344.53;;;6.89;86.65
66880;BME280;53789;51.392;10.234;2023-02-21T01:20:55;98354.41;;;6.90;85.95
66880;BME280;53789;51.392;10.234;2023-02-21T01:21:17;98361.78;;;6.89;85.91
66880;BME280;53789;51.392;10.234;2023-02-21T01:21:38;98354.41;;;6.90;86.20
66880;BME280;53789;51.392;10.234;2023-02-21T01:21:58;98346.19;;;6.90;85.92
66880;BME280;53789;51.392;10.234;2023-02-21T01:22:18;98353.31;;;6.91;86.10
66880;BME280;53789;51.392;10.234;2023-02-21T01:22:39;98348.94;;;6.90;86.73
66880;BME280;53789;51.392;10.234;2023-02-21T01:22:59;98354.13;;;6.91;86.78
66880;BME280;53789;51.392;10.234;2023-02-21T01:23:19;98354.13;;;6.91;86.42
66880;BME280;53789;51.392;10.234;2023-02-21T01:23:39;98356.84;;;6.91;85.75
66880;BME280;53789;51.392;10.234;2023-02-21T01:24:00;98358.50;;;6.93;86.27
66880;BME280;53789;51.392;10.234;2023-02-21T01:24:21;98355.22;;;6.90;86.03
66880;BME280;53789;51.392;10.234;2023-02-21T01:24:41;98350.84;;;6.89;85.96
66880;BME280;53789;51.392;10.234;2023-02-21T01:25:01;98347.84;;;6.91;86.59
66880;BME280;53789;51.392;10.234;2023-02-21T01:25:22;98354.41;;;6.90;86.76
66880;BME280;53789;51.392;10.234;2023-02-21T01:25:42;98347.03;;;6.90;86.30
66880;BME280;53789;51.392;10.234;2023-02-21T01:26:02;98357.13;;;6.90;86.31
66880;BME280;53789;51.392;10.234;2023-02-21T01:26:23;98357.97;;;6.90;86.53
66880;BME280;53789;51.392;10.234;2023-02-21T01:26:43;98359.06;;;6.89;86.20
66880;BME280;53789;51.392;10.234;2023-02-21T01:27:03;98354.13;;;6.91;86.42
66880;BME280;53789;51.392;10.234;2023-02-21T01:27:24;98354.13;;;6.91;85.65
66880;BME280;53789;51.392;10.234;2023-02-21T01:27:44;98354.94;;;6.92;86.48
66880;BME280;53789;51.392;10.234;2023-02-21T01:28:05;98362.03;;;6.93;86.35
66880;BME280;53789;51.392;10.234;2023-02-21T01:28:25;98360.13;;;6.94;86.88
66880;BME280;53789;51.392;10.234;2023-02-21T01:28:46;98363.41;;;6.96;86.26
66880;BME280;53789;51.392;10.234;2023-02-21T01:29:07;98363.41;;;6.96;86.36
66880;BME280;53789;51.392;10.234;2023-02-21T01:29:27;98365.31;;;6.95;86.37
66880;BME280;53789;51.392;10.234;2023-02-21T01:29:48;98362.03;;;6.93;86.30
66880;BME280;53789;51.392;10.234;2023-02-21T01:30:08;98362.03;;;6.93;85.49
66880;BME280;53789;51.392;10.234;2023-02-21T01:30:29;98364.78;;;6.93;85.67
66880;BME280;53789;51.392;10.234;2023-02-21T01:30:49;98355.75;;;6.93;86.59
66880;BME280;53789;51.392;10.234;2023-02-21T01:31:09;98361.22;;;6.93;86.12
66880;BME280;53789;51.392;10.234;2023-02-21T01:31:30;98365.59;;;6.94;86.32
66880;BME280;53789;51.392;10.234;2023-02-21T01:31:50;98358.50;;;6.93;85.52
66880;BME280;53789;51.392;10.234;2023-02-21T01:32:10;98360.94;;;6.94;86.04
66880;BME280;53789;51.392;10.234;2023-02-21T01:32:31;98361.75;;;6.95;85.82
66880;BME280;53789;51.392;10.234;2023-02-21T01:32:51;98362.88;;;6.94;86.11
66880;BME280;53789;51.392;10.234;2023-02-21T01:33:11;98360.94;;;6.94;85.85
66880;BME280;53789;51.392;10.234;2023-02-21T01:33:39;98363.69;;;6.94;85.62
66880;BME280;53789;51.392;10.234;2023-02-21T01:34:00;98367.22;;;6.95;85.96
66880;BME280;53789;51.392;10.234;2023-02-21T01:34:20;98368.06;;;6.95;85.76
66880;BME280;53789;51.392;10.234;2023-02-21T01:34:40;98366.13;;;6.96;85.67
66880;BME280;53789;51.392;10.234;2023-02-21T01:35:01;98366.94;;;6.96;85.65
66880;BME280;53789;51.392;10.234;2023-02-21T01:35:21;98360.66;;;6.96;85.90
66880;BME280;53789;51.392;10.234;2023-02-21T01:35:41;98370.50;;;6.97;86.57
66880;BME280;53789;51.392;10.234;2023-02-21T01:36:05;98366.13;;;6.96;86.24
66880;BME280;53789;51.392;10.234;2023-02-21T01:36:26;98366.13;;;6.96;86.09
66880;BME280;53789;51.392;10.234;2023-02-21T01:36:47;98362.31;;;6.97;85.71
66880;BME280;53789;51.392;10.234;2023-02-21T01:37:07;98361.75;;;6.95;85.57
66880;BME280;53789;51.392;10.234;2023-02-21T01:37:27;98360.94;;;6.94;85.69
66880;BME280;53789;51.392;10.234;2023-02-21T01:37:48;98360.13;;;6.94;86.08
66880;BME280;53789;51.392;10.234;2023-02-21T01:38:08;98360.94;;;6.94;86.13
66880;BME280;53789;51.392;10.234;2023-02-21T01:38:33;98353.56;;;6.95;86.61
66880;BME280;53789;51.392;10.234;2023-02-21T01:38:53;98360.94;;;6.94;85.76
66880;BME280;53789;51.392;10.234;2023-02-21T01:39:14;98359.31;;;6.93;85.42
66880;BME280;53789;51.392;10.234;2023-02-21T01:39:34;98359.31;;;6.93;85.71
66880;BME280;53789;51.392;10.234;2023-02-21T01:39:55;98356.56;;;6.93;86.39
66880;BME280;53789;51.392;10.234;2023-02-21T01:40:15;98360.13;;;6.94;86.33
66880;BME280;53789;51.392;10.234;2023-02-21T01:40:37;98361.75;;;6.95;86.82
66880;BME280;53789;51.392;10.234;2023-02-21T01:40:57;98363.41;;;6.96;85.89
66880;BME280;53789;51.392;10.234;2023-02-21T01:41:18;98363.97;;;6.93;86.36
66880;BME280;53789;51.392;10.234;2023-02-21T01:41:39;98365.88;;;6.92;85.83
66880;BME280;53789;51.392;10.234;2023-02-21T01:41:59;98367.50;;;6.93;85.80
66880;BME280;53789;51.392;10.234;2023-02-21T01:42:20;98363.97;;;6.93;86.38
66880;BME280;53789;51.392;10.234;2023-02-21T01:42:40;98368.63;;;6.92;86.21
66880;BME280;53789;51.392;10.234;2023-02-21T01:43:00;98363.97;;;6.93;86.15
66880;BME280;53789;51.392;10.234;2023-02-21T01:43:23;98362.31;;;6.91;86.15
66880;BME280;53789;51.392;10.234;2023-02-21T01:44:05;98360.41;;;6.92;86.48
66880;BME280;53789;51.392;10.234;2023-02-21T01:44:28;98365.88;;;6.92;86.10
66880;BME280;53789;51.392;10.234;2023-02-21T01:45:45;98362.03;;;6.93;86.70
66880;BME280;53789;51.392;10.234;2023-02-21T01:46:16;98354.94;;;6.92;86.58
66880;BME280;53789;51.392;10.234;2023-02-21T01:46:36;98356.84;;;6.91;87.06
66880;BME280;53789;51.392;10.234;2023-02-21T01:46:57;98348.66;;;6.91;85.93
66880;BME280;53789;51.392;10.234;2023-02-21T01:47:17;98362.31;;;6.91;86.28
66880;BME280;53789;51.392;10.234;2023-02-21T01:47:38;98360.41;;;6.92;86.05
66880;BME280;53789;51.392;10.234;2023-02-21T01:47:58;98362.88;;;6.94;86.81
66880;BME280;53789;51.392;10.234;2023-02-21T01:48:21;98365.59;;;6.94;86.93
66880;BME280;53789;51.392;10.234;2023-02-21T01:48:43;98356.56;;;6.93;86.85
66880;BME280;53789;51.392;10.234;2023-02-21T01:49:16;98355.75;;;6.93;86.33
66880;BME280;53789;51.392;10.234;2023-02-21T01:49:39;98361.50;;;6.91;86.77
66880;BME280;53789;51.392;10.234;2023-02-21T01:50:05;98357.97;;;6.90;86.36
66880;BME280;53789;51.392;10.234;2023-02-21T01:50:30;98362.31;;;6.91;86.14
66880;BME280;53789;51.392;10.234;2023-02-21T01:50:52;98358.78;;;6.91;87.05
66880;BME280;53789;51.392;10.234;2023-02-21T01:51:20;98362.31;;;6.91;86.22